Time;durP1;ratioP1;P1;durP2;ratioP2;P2;SDS_P1;SDS_P2;PMS_P1;PMS_P2;Temp;Humidity;BMP_temperature;BMP_pressure;BME280_temperature;BME280_humidity;BME280_pressure;Samples;Min_cycle;Max_cycle;Signal;HPM_P1;HPM_P2
2023/09/16 00:00:46;;;;;;;3.58;2.72;;;;;;;;;;6235240;28;20292;-69
2023/09/16 00:03:50;;;;;;;6.88;2.78;;;;;;;;;;6234117;28;20300;-70
2023/09/16 00:06:56;;;;;;;2.92;2.70;;;;;;;;;;6236119;28;20296;-69
2023/09/16 00:10:00;;;;;;;3.70;2.63;;;;;;;;;;6235368;28;20545;-70
2023/09/16 00:13:04;;;;;;;4.10;3.03;;;;;;;;;;6235187;28;20263;-69
2023/09/16 00:16:11;;;;;;;3.50;2.30;;;;;;;;;;6235759;28;20344;-69
2023/09/16 00:19:15;;;;;;;3.90;2.60;;;;;;;;;;6234911;28;20303;-69
2023/09/16 00:22:21;;;;;;;2.42;2.33;;;;;;;;;;6234348;28;20303;-68
2023/09/16 00:25:25;;;;;;;5.45;2.60;;;;;;;;;;6234940;28;20573;-70
2023/09/16 00:28:29;;;;;;;3.78;2.63;;;;;;;;;;6234976;28;20288;-69
2023/09/16 00:31:34;;;;;;;3.95;2.40;;;;;;;;;;6235326;28;20319;-69
2023/09/16 00:34:38;;;;;;;2.83;2.58;;;;;;;;;;6234720;28;20323;-67
2023/09/16 00:37:43;;;;;;;2.38;2.17;;;;;;;;;;6235467;28;20300;-69
2023/09/16 00:40:47;;;;;;;2.50;2.35;;;;;;;;;;6233825;28;20307;-69
2023/09/16 00:43:51;;;;;;;5.75;2.50;;;;;;;;;;6234082;28;20292;-69
2023/09/16 00:46:54;;;;;;;4.70;2.72;;;;;;;;;;6234638;28;20266;-68
2023/09/16 00:49:58;;;;;;;2.75;2.50;;;;;;;;;;6234493;28;20300;-68
2023/09/16 00:53:04;;;;;;;2.63;2.42;;;;;;;;;;6249318;28;20268;-69
2023/09/16 00:56:08;;;;;;;2.30;2.20;;;;;;;;;;6249455;28;20312;-69
2023/09/16 00:59:12;;;;;;;2.72;2.53;;;;;;;;;;6233309;28;20304;-69
2023/09/16 01:02:16;;;;;;;9.35;2.30;;;;;;;;;;6247844;28;20433;-68
2023/09/16 01:05:22;;;;;;;2.42;2.22;;;;;;;;;;6249434;28;20495;-70
2023/09/16 01:08:29;;;;;;;2.38;2.20;;;;;;;;;;6248313;28;20296;-70
2023/09/16 01:11:34;;;;;;;2.17;2.17;;;;;;;;;;6234601;28;20302;-69
2023/09/16 01:14:38;;;;;;;2.30;2.15;;;;;;;;;;6233984;28;20299;-68
2023/09/16 01:17:49;;;;;;;3.10;2.42;;;;;;;;;;6234519;28;20288;-69
2023/09/16 01:20:56;;;;;;;2.20;2.10;;;;;;;;;;6233231;28;20383;-68
2023/09/16 01:24:17;;;;;;;3.92;2.00;;;;;;;;;;6234012;28;20395;-69
2023/09/16 01:27:22;;;;;;;2.53;2.33;;;;;;;;;;6234186;28;20324;-70
2023/09/16 01:30:27;;;;;;;2.00;1.90;;;;;;;;;;6232548;28;20304;-69
2023/09/16 01:33:36;;;;;;;3.97;2.08;;;;;;;;;;6247951;28;20312;-70
2023/09/16 01:36:41;;;;;;;2.25;1.98;;;;;;;;;;6232159;28;20305;-69
2023/09/16 01:39:47;;;;;;;2.75;1.63;;;;;;;;;;6248497;28;20295;-71
2023/09/16 01:42:53;;;;;;;4.18;2.17;;;;;;;;;;6247682;28;20300;-71
2023/09/16 01:45:57;;;;;;;3.13;2.00;;;;;;;;;;6232130;28;20328;-69
2023/09/16 01:49:01;;;;;;;3.85;1.98;;;;;;;;;;6248397;28;20304;-70
2023/09/16 01:52:06;;;;;;;5.38;2.53;;;;;;;;;;6233679;28;20487;-69
2023/09/16 01:55:10;;;;;;;1.85;1.85;;;;;;;;;;6232895;28;20288;-70
2023/09/16 01:58:15;;;;;;;2.22;2.13;;;;;;;;;;6232865;28;20304;-69
2023/09/16 02:01:19;;;;;;;2.22;1.95;;;;;;;;;;6232056;28;20311;-72
2023/09/16 02:04:22;;;;;;;2.25;2.05;;;;;;;;;;6245863;28;20612;-69
2023/09/16 02:07:27;;;;;;;3.08;2.10;;;;;;;;;;6231093;28;20307;-69
2023/09/16 02:10:32;;;;;;;2.50;2.30;;;;;;;;;;6247735;28;20383;-68
2023/09/16 02:13:37;;;;;;;3.85;1.80;;;;;;;;;;6247817;28;20291;-69
2023/09/16 02:16:41;;;;;;;2.95;2.03;;;;;;;;;;6232815;28;20295;-70
2023/09/16 02:19:45;;;;;;;2.22;2.13;;;;;;;;;;6247200;28;20474;-68
2023/09/16 02:22:50;;;;;;;2.38;2.25;;;;;;;;;;6231704;28;20592;-68
2023/09/16 02:25:54;;;;;;;3.80;2.40;;;;;;;;;;6247846;28;20292;-71
2023/09/16 02:28:59;;;;;;;2.67;2.53;;;;;;;;;;6247443;28;20300;-67
2023/09/16 02:32:03;;;;;;;2.53;2.30;;;;;;;;;;6230936;28;20279;-69
2023/09/16 02:35:07;;;;;;;2.15;2.05;;;;;;;;;;6231619;28;20244;-70
2023/09/16 02:38:11;;;;;;;2.40;2.30;;;;;;;;;;6231940;28;20295;-69
2023/09/16 02:41:17;;;;;;;2.38;2.05;;;;;;;;;;6247849;28;20312;-68
2023/09/16 02:44:24;;;;;;;2.28;2.08;;;;;;;;;;6238782;28;20473;-69
2023/09/16 02:47:29;;;;;;;2.50;2.40;;;;;;;;;;6244411;28;20296;-67
2023/09/16 02:50:38;;;;;;;2.30;2.20;;;;;;;;;;6244097;28;20302;-68
2023/09/16 02:53:42;;;;;;;4.63;2.33;;;;;;;;;;6244029;28;20376;-69
2023/09/16 02:56:46;;;;;;;2.63;2.53;;;;;;;;;;6244550;28;20593;-69
2023/09/16 02:59:52;;;;;;;2.05;2.00;;;;;;;;;;6210800;28;20300;-69
2023/09/16 03:02:57;;;;;;;2.50;2.40;;;;;;;;;;6233295;28;20296;-68
2023/09/16 03:06:02;;;;;;;3.80;2.67;;;;;;;;;;6251365;28;20292;-69
2023/09/16 03:09:05;;;;;;;4.03;2.80;;;;;;;;;;6243768;28;20301;-68
2023/09/16 03:12:10;;;;;;;2.60;2.50;;;;;;;;;;6251957;28;20300;-69
2023/09/16 03:15:15;;;;;;;2.88;2.38;;;;;;;;;;6251861;28;20327;-68
2023/09/16 03:18:19;;;;;;;2.72;2.53;;;;;;;;;;6236940;28;20323;-68
2023/09/16 03:21:25;;;;;;;2.67;2.53;;;;;;;;;;6243413;28;20308;-68
2023/09/16 03:24:34;;;;;;;2.83;2.63;;;;;;;;;;6210341;28;20568;-69
2023/09/16 03:27:40;;;;;;;2.60;2.50;;;;;;;;;;6243791;28;20324;-69
2023/09/16 03:30:46;;;;;;;3.00;2.75;;;;;;;;;;6210304;28;20292;-68
2023/09/16 03:33:50;;;;;;;2.70;2.50;;;;;;;;;;6242931;28;20293;-69
2023/09/16 03:36:54;;;;;;;2.72;2.63;;;;;;;;;;6213923;28;20243;-69
2023/09/16 03:39:58;;;;;;;3.92;2.63;;;;;;;;;;6251228;28;20316;-71
2023/09/16 03:43:04;;;;;;;2.45;2.45;;;;;;;;;;6251330;28;20312;-68
2023/09/16 03:46:09;;;;;;;5.93;3.20;;;;;;;;;;6234424;28;20523;-69
2023/09/16 03:49:13;;;;;;;4.28;2.83;;;;;;;;;;6234459;28;20308;-70
2023/09/16 03:52:20;;;;;;;3.88;2.95;;;;;;;;;;6251420;28;20295;-69
2023/09/16 03:55:24;;;;;;;3.72;2.80;;;;;;;;;;6235534;28;20296;-68
2023/09/16 03:58:28;;;;;;;3.90;2.95;;;;;;;;;;6251149;28;20490;-68
2023/09/16 04:01:33;;;;;;;3.25;2.75;;;;;;;;;;6233992;28;20573;-68
2023/09/16 04:04:37;;;;;;;3.85;2.90;;;;;;;;;;6234109;28;20316;-69
2023/09/16 04:07:41;;;;;;;3.30;3.00;;;;;;;;;;6235804;28;20304;-68
2023/09/16 04:10:45;;;;;;;3.03;2.88;;;;;;;;;;6235508;28;20368;-69
2023/09/16 04:13:49;;;;;;;3.17;2.88;;;;;;;;;;6233801;28;20316;-68
2023/09/16 04:16:56;;;;;;;3.10;2.90;;;;;;;;;;6235187;28;20308;-69
2023/09/16 04:20:04;;;;;;;2.72;2.53;;;;;;;;;;6235210;28;20300;-70
2023/09/16 04:23:09;;;;;;;3.17;2.90;;;;;;;;;;6234708;28;20581;-68
2023/09/16 04:26:15;;;;;;;2.92;2.80;;;;;;;;;;6249623;28;20319;-70
2023/09/16 04:29:21;;;;;;;3.97;2.95;;;;;;;;;;6250115;28;20467;-68
2023/09/16 04:32:26;;;;;;;3.30;3.00;;;;;;;;;;6234772;28;20468;-68
2023/09/16 04:35:31;;;;;;;3.20;2.90;;;;;;;;;;6249224;28;20237;-69
2023/09/16 04:38:35;;;;;;;6.28;3.03;;;;;;;;;;6234859;28;20312;-69
2023/09/16 04:41:39;;;;;;;3.25;3.03;;;;;;;;;;6249657;28;20299;-69
2023/09/16 04:44:44;;;;;;;4.45;2.90;;;;;;;;;;6241308;28;20321;-69
2023/09/16 04:47:52;;;;;;;6.20;2.97;;;;;;;;;;6241680;28;20294;-70
2023/09/16 04:50:56;;;;;;;4.63;3.25;;;;;;;;;;6208467;28;20309;-68
2023/09/16 04:54:01;;;;;;;3.33;3.03;;;;;;;;;;6224855;28;20301;-69
2023/09/16 04:57:05;;;;;;;3.78;3.30;;;;;;;;;;6207904;28;20301;-68
2023/09/16 05:00:10;;;;;;;3.60;3.30;;;;;;;;;;6241307;28;20316;-69
2023/09/16 05:03:15;;;;;;;3.72;2.75;;;;;;;;;;6206748;28;20391;-70
2023/09/16 05:06:19;;;;;;;3.35;3.08;;;;;;;;;;6240987;28;20305;-69
2023/09/16 05:09:25;;;;;;;4.65;3.28;;;;;;;;;;6206653;28;20305;-69
2023/09/16 05:12:29;;;;;;;3.63;3.33;;;;;;;;;;6248852;28;20312;-69
2023/09/16 05:15:33;;;;;;;2.90;2.80;;;;;;;;;;6248520;28;20296;-68
2023/09/16 05:18:38;;;;;;;3.55;3.35;;;;;;;;;;6249026;28;20304;-68
2023/09/16 05:21:42;;;;;;;3.80;3.15;;;;;;;;;;6232097;28;20315;-68
2023/09/16 05:24:46;;;;;;;4.38;3.05;;;;;;;;;;6248778;28;20292;-67
2023/09/16 05:27:51;;;;;;;5.13;3.08;;;;;;;;;;6249015;28;20324;-68
2023/09/16 05:30:56;;;;;;;3.22;2.90;;;;;;;;;;6247956;28;20304;-69
2023/09/16 05:34:03;;;;;;;4.10;2.80;;;;;;;;;;6248240;28;20320;-68
2023/09/16 05:37:07;;;;;;;3.20;2.90;;;;;;;;;;6248291;28;20546;-68
2023/09/16 05:40:11;;;;;;;5.05;2.95;;;;;;;;;;6233175;28;20296;-69
2023/09/16 05:43:15;;;;;;;3.03;2.83;;;;;;;;;;6233644;28;20288;-68
2023/09/16 05:46:19;;;;;;;3.00;2.78;;;;;;;;;;6231960;28;20323;-68
2023/09/16 05:49:25;;;;;;;3.20;3.00;;;;;;;;;;6248904;28;20351;-69
2023/09/16 05:52:30;;;;;;;2.58;2.58;;;;;;;;;;6248636;28;20304;-69
2023/09/16 05:55:38;;;;;;;4.65;2.55;;;;;;;;;;6247441;28;20612;-70
2023/09/16 05:58:46;;;;;;;2.47;2.40;;;;;;;;;;6247845;28;20304;-68
2023/09/16 06:01:53;;;;;;;2.47;2.28;;;;;;;;;;6246751;28;20305;-77
2023/09/16 06:04:59;;;;;;;2.95;2.70;;;;;;;;;;6248015;28;20307;-69
2023/09/16 06:08:03;;;;;;;2.50;2.33;;;;;;;;;;6247853;28;20283;-68
2023/09/16 06:11:07;;;;;;;2.50;2.30;;;;;;;;;;6231298;28;20315;-68
2023/09/16 06:14:11;;;;;;;1.88;1.88;;;;;;;;;;6231058;28;20288;-68
2023/09/16 06:17:15;;;;;;;1.95;1.85;;;;;;;;;;6231779;28;20540;-69
2023/09/16 06:20:20;;;;;;;4.15;2.10;;;;;;;;;;6230591;28;20304;-69
2023/09/16 06:23:25;;;;;;;2.22;2.10;;;;;;;;;;6233027;28;20300;-67
2023/09/16 06:26:30;;;;;;;2.13;2.03;;;;;;;;;;6247428;28;20303;-70
2023/09/16 06:29:34;;;;;;;2.65;2.35;;;;;;;;;;6230881;28;20296;-70
2023/09/16 06:32:38;;;;;;;1.80;1.80;;;;;;;;;;6232482;28;20288;-68
2023/09/16 06:35:43;;;;;;;3.40;2.08;;;;;;;;;;6247151;28;20387;-68
2023/09/16 06:38:47;;;;;;;2.58;2.17;;;;;;;;;;6231307;28;20300;-68
2023/09/16 06:41:51;;;;;;;2.10;1.90;;;;;;;;;;6230387;28;20328;-68
2023/09/16 06:44:56;;;;;;;2.03;1.80;;;;;;;;;;6231750;28;20312;-72
2023/09/16 06:48:02;;;;;;;1.63;1.55;;;;;;;;;;6247150;28;20320;-67
2023/09/16 06:51:07;;;;;;;2.00;1.85;;;;;;;;;;6231786;28;20447;-68
2023/09/16 06:54:11;;;;;;;4.15;1.92;;;;;;;;;;6231972;28;20304;-68
2023/09/16 06:57:15;;;;;;;5.82;2.20;;;;;;;;;;6232053;28;20332;-67
2023/09/16 07:00:18;;;;;;;3.35;2.20;;;;;;;;;;6231898;28;20508;-68
2023/09/16 07:03:23;;;;;;;5.40;2.13;;;;;;;;;;6230577;28;20343;-68
2023/09/16 07:06:28;;;;;;;2.25;1.80;;;;;;;;;;6231457;28;20331;-69
2023/09/16 07:09:32;;;;;;;4.93;2.10;;;;;;;;;;6231637;28;20292;-69
2023/09/16 07:12:35;;;;;;;2.53;1.80;;;;;;;;;;6232661;28;20303;-68
2023/09/16 07:15:39;;;;;;;1.75;1.67;;;;;;;;;;6232326;28;20299;-68
2023/09/16 07:18:43;;;;;;;1.80;1.70;;;;;;;;;;6231994;28;20309;-68
2023/09/16 07:21:48;;;;;;;2.50;1.80;;;;;;;;;;6231539;28;20304;-69
2023/09/16 07:24:52;;;;;;;1.80;1.70;;;;;;;;;;6231591;28;20308;-68
2023/09/16 07:27:56;;;;;;;1.38;1.35;;;;;;;;;;6231938;28;20300;-69
2023/09/16 07:31:00;;;;;;;1.73;1.63;;;;;;;;;;6232159;28;20296;-67
2023/09/16 07:34:04;;;;;;;1.63;1.48;;;;;;;;;;6235816;28;20498;-70
2023/09/16 07:37:09;;;;;;;1.73;1.65;;;;;;;;;;6236564;28;20303;-68
2023/09/16 07:40:13;;;;;;;2.15;1.70;;;;;;;;;;6235773;28;20292;-69
2023/09/16 07:43:18;;;;;;;2.15;2.00;;;;;;;;;;6236461;28;20497;-69
2023/09/16 07:46:23;;;;;;;1.60;1.50;;;;;;;;;;6235756;28;20304;-70
2023/09/16 07:49:26;;;;;;;1.80;1.70;;;;;;;;;;6236011;28;20296;-69
2023/09/16 07:52:32;;;;;;;4.18;1.60;;;;;;;;;;6236221;28;20325;-71
2023/09/16 07:55:36;;;;;;;2.20;1.67;;;;;;;;;;6227647;28;20494;-68
2023/09/16 07:58:39;;;;;;;2.38;2.15;;;;;;;;;;6211780;28;20474;-69
2023/09/16 08:01:43;;;;;;;2.83;1.88;;;;;;;;;;6211115;28;20321;-69
2023/09/16 08:04:47;;;;;;;6.10;1.90;;;;;;;;;;6208504;28;20380;-68
2023/09/16 08:07:52;;;;;;;2.20;2.00;;;;;;;;;;6211021;28;20257;-68
2023/09/16 08:10:56;;;;;;;4.47;2.00;;;;;;;;;;6213768;28;20339;-68
2023/09/16 08:14:00;;;;;;;3.17;2.00;;;;;;;;;;6235283;28;20249;-68
2023/09/16 08:17:04;;;;;;;4.25;1.98;;;;;;;;;;6235116;28;20345;-68
2023/09/16 08:20:09;;;;;;;3.05;1.75;;;;;;;;;;6234989;28;20303;-71
2023/09/16 08:23:15;;;;;;;2.65;1.80;;;;;;;;;;6235663;28;20530;-70
2023/09/16 08:26:18;;;;;;;5.72;1.88;;;;;;;;;;6234910;28;20542;-70
2023/09/16 08:29:22;;;;;;;3.65;2.00;;;;;;;;;;6234938;28;20646;-69
2023/09/16 08:32:28;;;;;;;2.33;2.22;;;;;;;;;;6235286;28;20292;-69
2023/09/16 08:35:32;;;;;;;8.32;2.10;;;;;;;;;;6235083;28;20316;-69
2023/09/16 08:38:38;;;;;;;2.15;1.80;;;;;;;;;;6235799;28;20298;-69
2023/09/16 08:41:45;;;;;;;2.75;1.92;;;;;;;;;;6235260;28;20300;-68
2023/09/16 08:44:51;;;;;;;2.88;2.15;;;;;;;;;;6233582;28;20340;-68
2023/09/16 08:48:01;;;;;;;2.40;1.95;;;;;;;;;;6235233;28;20303;-69
2023/09/16 08:51:07;;;;;;;3.53;2.25;;;;;;;;;;6249860;28;20487;-69
2023/09/16 08:54:12;;;;;;;2.15;2.00;;;;;;;;;;6234616;28;20300;-69
2023/09/16 08:57:16;;;;;;;5.15;2.10;;;;;;;;;;6234667;28;20325;-70
2023/09/16 09:00:20;;;;;;;1.95;1.85;;;;;;;;;;6234140;28;20316;-69
2023/09/16 09:03:24;;;;;;;2.67;2.03;;;;;;;;;;6233166;28;20308;-71
2023/09/16 09:06:28;;;;;;;4.75;2.30;;;;;;;;;;6234212;28;20292;-68
2023/09/16 09:09:44;;;;;;;3.03;2.05;;;;;;;;;;6233850;28;20598;-68
2023/09/16 09:12:50;;;;;;;1.98;1.80;;;;;;;;;;6234492;28;20353;-68
2023/09/16 09:15:59;;;;;;;4.25;1.80;;;;;;;;;;6234014;28;20368;-69
2023/09/16 09:19:03;;;;;;;5.30;1.98;;;;;;;;;;6234129;28;20307;-70
2023/09/16 09:22:07;;;;;;;2.92;1.98;;;;;;;;;;6233703;28;20359;-68
2023/09/16 09:25:12;;;;;;;2.35;2.20;;;;;;;;;;6233748;28;20323;-67
2023/09/16 09:28:17;;;;;;;1.90;1.80;;;;;;;;;;6234360;28;20475;-68
2023/09/16 09:31:21;;;;;;;2.03;2.03;;;;;;;;;;6233507;28;20380;-68
2023/09/16 09:34:28;;;;;;;1.85;1.80;;;;;;;;;;6248232;28;20356;-70
2023/09/16 09:37:32;;;;;;;2.03;1.92;;;;;;;;;;6234039;28;20576;-68
2023/09/16 09:40:37;;;;;;;1.92;1.83;;;;;;;;;;6233462;28;20304;-68
2023/09/16 09:43:41;;;;;;;5.15;1.80;;;;;;;;;;6233384;28;20494;-68
2023/09/16 09:46:45;;;;;;;5.93;1.90;;;;;;;;;;6233276;28;20309;-68
2023/09/16 09:49:49;;;;;;;4.38;1.95;;;;;;;;;;6232623;28;20448;-69
2023/09/16 09:52:54;;;;;;;1.98;1.90;;;;;;;;;;6233649;28;20557;-71
2023/09/16 09:56:00;;;;;;;3.05;1.75;;;;;;;;;;6232550;28;20324;-70
2023/09/16 09:59:04;;;;;;;2.13;1.95;;;;;;;;;;6233110;28;20284;-68
2023/09/16 10:02:09;;;;;;;2.17;1.90;;;;;;;;;;6231121;28;20292;-72
2023/09/16 10:05:15;;;;;;;3.65;1.98;;;;;;;;;;6233598;28;20296;-70
2023/09/16 10:08:19;;;;;;;2.92;2.38;;;;;;;;;;6233075;28;20609;-70
2023/09/16 10:11:28;;;;;;;4.65;2.00;;;;;;;;;;6232649;28;20295;-69
2023/09/16 10:14:33;;;;;;;4.03;2.05;;;;;;;;;;6232192;28;20542;-70
2023/09/16 10:17:37;;;;;;;2.50;2.30;;;;;;;;;;6232983;28;20296;-68
2023/09/16 10:20:44;;;;;;;3.30;2.25;;;;;;;;;;6232194;28;20247;-69
2023/09/16 10:23:48;;;;;;;2.10;1.90;;;;;;;;;;6232503;28;20311;-71
2023/09/16 10:26:54;;;;;;;2.00;1.90;;;;;;;;;;6232553;28;20300;-68
2023/09/16 10:29:59;;;;;;;5.93;1.83;;;;;;;;;;6232380;28;20284;-68
2023/09/16 10:33:05;;;;;;;3.20;2.15;;;;;;;;;;6232669;28;20284;-68
2023/09/16 10:36:10;;;;;;;7.07;2.03;;;;;;;;;;6184322;28;20301;-69
2023/09/16 10:39:15;;;;;;;3.95;1.65;;;;;;;;;;6184180;28;20305;-69
2023/09/16 10:42:21;;;;;;;3.35;2.08;;;;;;;;;;6184332;28;20610;-70
2023/09/16 10:45:26;;;;;;;2.90;2.20;;;;;;;;;;6183733;28;20317;-68
2023/09/16 10:48:30;;;;;;;2.63;2.13;;;;;;;;;;6184568;28;20298;-71
2023/09/16 10:51:39;;;;;;;2.05;2.00;;;;;;;;;;6183511;28;20309;-69
2023/09/16 10:54:46;;;;;;;2.45;1.95;;;;;;;;;;6183451;28;20294;-69
2023/09/16 10:57:56;;;;;;;2.03;1.90;;;;;;;;;;6184165;28;20306;-69
2023/09/16 11:01:02;;;;;;;8.35;2.22;;;;;;;;;;6183815;28;20493;-69
2023/09/16 11:04:09;;;;;;;4.68;2.40;;;;;;;;;;6182375;28;20305;-69
2023/09/16 11:07:14;;;;;;;2.33;2.13;;;;;;;;;;6187155;28;20577;-69
2023/09/16 11:10:18;;;;;;;2.83;2.17;;;;;;;;;;6188606;28;20318;-68
2023/09/16 11:13:24;;;;;;;1.83;1.83;;;;;;;;;;6189088;28;20301;-68
2023/09/16 11:16:28;;;;;;;7.05;2.30;;;;;;;;;;6188624;28;20301;-69
2023/09/16 11:19:31;;;;;;;2.13;2.00;;;;;;;;;;6188405;28;20349;-69
2023/09/16 11:22:35;;;;;;;9.07;2.40;;;;;;;;;;6188443;28;20369;-69
2023/09/16 11:25:41;;;;;;;6.68;2.50;;;;;;;;;;6188086;28;20309;-70
2023/09/16 11:28:46;;;;;;;2.17;2.08;;;;;;;;;;6189013;28;20479;-68
2023/09/16 11:31:51;;;;;;;2.85;2.20;;;;;;;;;;6188346;28;20297;-68
2023/09/16 11:35:00;;;;;;;2.85;2.10;;;;;;;;;;6224094;28;20300;-68
2023/09/16 11:38:04;;;;;;;2.80;1.85;;;;;;;;;;6237073;28;20253;-68
2023/09/16 11:41:10;;;;;;;2.20;2.10;;;;;;;;;;6236372;28;20302;-69
2023/09/16 11:44:15;;;;;;;2.10;2.00;;;;;;;;;;6225403;28;20581;-71
2023/09/16 11:47:19;;;;;;;2.60;2.40;;;;;;;;;;6212540;28;20297;-68
2023/09/16 11:50:26;;;;;;;4.63;2.35;;;;;;;;;;6211821;28;20317;-70
2023/09/16 11:53:30;;;;;;;2.63;2.42;;;;;;;;;;6211981;28;20296;-69
2023/09/16 11:56:35;;;;;;;2.97;2.15;;;;;;;;;;6211345;28;20304;-68
2023/09/16 11:59:41;;;;;;;3.70;1.90;;;;;;;;;;6211772;28;20301;-70
2023/09/16 12:02:45;;;;;;;3.33;2.20;;;;;;;;;;6210424;28;20312;-70
2023/09/16 12:05:49;;;;;;;7.40;2.75;;;;;;;;;;6211397;28;20305;-68
2023/09/16 12:08:54;;;;;;;2.35;2.15;;;;;;;;;;6210018;28;20585;-68
2023/09/16 12:11:59;;;;;;;6.07;2.20;;;;;;;;;;6222678;28;20309;-70
2023/09/16 12:15:05;;;;;;;8.40;2.40;;;;;;;;;;6235762;28;20305;-69
2023/09/16 12:18:09;;;;;;;2.38;2.10;;;;;;;;;;6236249;28;20312;-69
2023/09/16 12:21:13;;;;;;;3.42;1.90;;;;;;;;;;6235318;28;20303;-70
2023/09/16 12:24:18;;;;;;;1.90;1.80;;;;;;;;;;6235297;28;20313;-68
2023/09/16 12:27:24;;;;;;;4.68;2.00;;;;;;;;;;6236111;28;20373;-69
2023/09/16 12:30:29;;;;;;;7.85;2.30;;;;;;;;;;6235282;28;20301;-70
2023/09/16 12:33:40;;;;;;;3.92;2.50;;;;;;;;;;6234975;28;20336;-69
2023/09/16 12:36:49;;;;;;;2.92;2.50;;;;;;;;;;6234446;28;20300;-68
2023/09/16 12:39:53;;;;;;;9.68;4.65;;;;;;;;;;6234802;28;20308;-70
2023/09/16 12:42:57;;;;;;;9.60;3.90;;;;;;;;;;6234274;28;20303;-69
2023/09/16 12:46:04;;;;;;;3.55;2.08;;;;;;;;;;6210331;28;20312;-70
2023/09/16 12:49:08;;;;;;;2.40;2.10;;;;;;;;;;6210109;28;20308;-69
2023/09/16 12:52:13;;;;;;;3.08;2.70;;;;;;;;;;6210682;28;20304;-70
2023/09/16 12:55:17;;;;;;;2.58;2.00;;;;;;;;;;6210859;28;20297;-68
2023/09/16 12:58:22;;;;;;;6.43;2.20;;;;;;;;;;6210923;28;20300;-68
2023/09/16 13:01:28;;;;;;;3.33;2.30;;;;;;;;;;6209853;28;20321;-67
2023/09/16 13:04:32;;;;;;;2.30;2.10;;;;;;;;;;6208141;28;20301;-70
2023/09/16 13:07:35;;;;;;;6.28;1.98;;;;;;;;;;6210171;28;20297;-68
2023/09/16 13:10:39;;;;;;;2.15;2.00;;;;;;;;;;6210331;28;20301;-69
2023/09/16 13:13:43;;;;;;;2.10;2.00;;;;;;;;;;6249662;28;20303;-69
2023/09/16 13:16:49;;;;;;;2.80;2.17;;;;;;;;;;6232965;28;20300;-70
2023/09/16 13:19:58;;;;;;;4.30;1.90;;;;;;;;;;6233638;28;20603;-68
2023/09/16 13:23:01;;;;;;;1.98;1.88;;;;;;;;;;6233935;28;20533;-68
2023/09/16 13:26:10;;;;;;;6.93;2.35;;;;;;;;;;6233452;28;20308;-72
2023/09/16 13:29:15;;;;;;;2.05;1.80;;;;;;;;;;6232962;28;20288;-70
2023/09/16 13:32:21;;;;;;;2.20;1.98;;;;;;;;;;6233742;28;20332;-68
2023/09/16 13:35:24;;;;;;;2.22;2.00;;;;;;;;;;6232939;28;20327;-69
2023/09/16 13:38:28;;;;;;;4.05;2.13;;;;;;;;;;6233499;28;20512;-69
2023/09/16 13:41:32;;;;;;;2.10;2.00;;;;;;;;;;6233286;28;20304;-69
2023/09/16 13:44:36;;;;;;;3.10;2.13;;;;;;;;;;6218977;28;20297;-71
2023/09/16 13:47:41;;;;;;;2.63;2.03;;;;;;;;;;6209223;28;20545;-69
2023/09/16 13:50:47;;;;;;;2.30;2.15;;;;;;;;;;6208265;28;20300;-71
2023/09/16 13:53:51;;;;;;;2.10;2.00;;;;;;;;;;6209504;28;20304;-69
2023/09/16 13:56:55;;;;;;;3.50;1.80;;;;;;;;;;6208111;28;20378;-69
2023/09/16 13:59:58;;;;;;;2.00;1.90;;;;;;;;;;6208449;28;20292;-70
2023/09/16 14:03:05;;;;;;;1.98;1.88;;;;;;;;;;6206610;28;20234;-68
2023/09/16 14:06:08;;;;;;;3.90;2.67;;;;;;;;;;6207990;28;20442;-68
2023/09/16 14:09:12;;;;;;;2.65;2.25;;;;;;;;;;6207989;28;20300;-68
2023/09/16 14:12:16;;;;;;;2.30;2.10;;;;;;;;;;6222178;28;20308;-72
2023/09/16 14:15:23;;;;;;;2.38;2.17;;;;;;;;;;6232760;28;20312;-69
2023/09/16 14:18:29;;;;;;;3.55;2.10;;;;;;;;;;6233095;28;20308;-69
2023/09/16 14:21:32;;;;;;;3.55;1.90;;;;;;;;;;6233315;28;20304;-67
2023/09/16 14:24:36;;;;;;;4.10;2.70;;;;;;;;;;6232366;28;20301;-69
2023/09/16 14:27:42;;;;;;;4.47;2.90;;;;;;;;;;6232942;28;20311;-69
2023/09/16 14:30:46;;;;;;;3.58;1.85;;;;;;;;;;6232149;28;20307;-69
2023/09/16 14:33:51;;;;;;;2.35;2.25;;;;;;;;;;6232542;28;20567;-69
2023/09/16 14:36:55;;;;;;;2.30;2.15;;;;;;;;;;6232264;28;20312;-68
2023/09/16 14:39:59;;;;;;;5.65;2.55;;;;;;;;;;6231726;28;20588;-71
2023/09/16 14:43:03;;;;;;;2.10;2.00;;;;;;;;;;6230486;28;20312;-68
2023/09/16 14:46:07;;;;;;;3.58;1.70;;;;;;;;;;6207610;28;20304;-69
2023/09/16 14:49:12;;;;;;;2.80;2.20;;;;;;;;;;6207557;28;20292;-70
2023/09/16 14:52:16;;;;;;;2.13;2.03;;;;;;;;;;6207936;28;20339;-70
2023/09/16 14:55:20;;;;;;;9.85;6.18;;;;;;;;;;6207699;28;20309;-67
2023/09/16 14:58:24;;;;;;;3.65;3.38;;;;;;;;;;6208021;28;20305;-69
2023/09/16 15:01:28;;;;;;;3.05;2.80;;;;;;;;;;6207463;28;20332;-68
2023/09/16 15:04:34;;;;;;;2.35;2.10;;;;;;;;;;6205684;28;20654;-67
2023/09/16 15:07:38;;;;;;;21.02;9.88;;;;;;;;;;6208087;28;20493;-68
2023/09/16 15:10:45;;;;;;;4.20;3.15;;;;;;;;;;6208308;28;20308;-69
2023/09/16 15:13:51;;;;;;;2.20;2.10;;;;;;;;;;6229875;28;20460;-68
2023/09/16 15:16:55;;;;;;;2.28;2.17;;;;;;;;;;6231902;28;20601;-71
2023/09/16 15:20:00;;;;;;;4.78;2.15;;;;;;;;;;6231316;28;20608;-68
2023/09/16 15:23:04;;;;;;;1.85;1.63;;;;;;;;;;6232492;28;20541;-68
2023/09/16 15:26:09;;;;;;;1.88;1.80;;;;;;;;;;6231797;28;20296;-68
2023/09/16 15:29:16;;;;;;;4.95;2.05;;;;;;;;;;6231889;28;20300;-69
2023/09/16 15:32:20;;;;;;;2.05;2.05;;;;;;;;;;6232256;28;20304;-69
2023/09/16 15:35:28;;;;;;;3.60;2.13;;;;;;;;;;6231661;28;20313;-68
2023/09/16 15:38:31;;;;;;;5.68;2.20;;;;;;;;;;6231995;28;20455;-68
2023/09/16 15:41:36;;;;;;;3.22;2.10;;;;;;;;;;6231704;28;20569;-68
2023/09/16 15:44:40;;;;;;;2.30;2.20;;;;;;;;;;6216642;28;20416;-70
2023/09/16 15:47:44;;;;;;;4.72;2.40;;;;;;;;;;6208846;28;20316;-68
2023/09/16 15:50:49;;;;;;;2.10;1.98;;;;;;;;;;6221903;28;20297;-68
2023/09/16 15:53:53;;;;;;;2.35;2.20;;;;;;;;;;6210979;28;20304;-70
2023/09/16 15:56:57;;;;;;;3.72;3.40;;;;;;;;;;6226300;28;20301;-69
2023/09/16 16:00:01;;;;;;;4.38;3.60;;;;;;;;;;6211441;28;20484;-67
2023/09/16 16:03:06;;;;;;;4.82;4.30;;;;;;;;;;6213972;28;20305;-69
2023/09/16 16:06:13;;;;;;;3.40;2.70;;;;;;;;;;6209768;28;20293;-70
2023/09/16 16:09:17;;;;;;;4.93;3.38;;;;;;;;;;6210741;28;20300;-71
2023/09/16 16:12:22;;;;;;;2.90;2.70;;;;;;;;;;6225651;28;20327;-68
2023/09/16 16:15:26;;;;;;;3.05;2.72;;;;;;;;;;6235274;28;20316;-71
2023/09/16 16:18:30;;;;;;;2.75;2.00;;;;;;;;;;6235886;28;20307;-70
2023/09/16 16:21:35;;;;;;;3.08;2.03;;;;;;;;;;6235268;28;20470;-70
2023/09/16 16:24:40;;;;;;;2.40;1.92;;;;;;;;;;6234855;28;20304;-70
2023/09/16 16:27:44;;;;;;;2.05;2.05;;;;;;;;;;6235421;28;20307;-72
2023/09/16 16:30:48;;;;;;;1.98;1.88;;;;;;;;;;6234482;28;20300;-70
2023/09/16 16:33:52;;;;;;;2.05;1.85;;;;;;;;;;6234364;28;20336;-68
2023/09/16 16:36:57;;;;;;;2.10;2.10;;;;;;;;;;6234166;28;20308;-68
2023/09/16 16:40:01;;;;;;;2.15;1.95;;;;;;;;;;6249406;28;20585;-68
2023/09/16 16:43:05;;;;;;;4.07;2.13;;;;;;;;;;6232522;28;20328;-68
2023/09/16 16:46:10;;;;;;;2.33;2.20;;;;;;;;;;6209712;28;20305;-68
2023/09/16 16:49:15;;;;;;;3.30;2.10;;;;;;;;;;6210294;28;20293;-69
2023/09/16 16:52:20;;;;;;;4.22;2.00;;;;;;;;;;6210266;28;20337;-68
2023/09/16 16:55:24;;;;;;;2.30;1.90;;;;;;;;;;6209710;28;20325;-68
2023/09/16 16:58:28;;;;;;;2.88;2.30;;;;;;;;;;6210026;28;20308;-68
2023/09/16 17:01:32;;;;;;;2.05;2.05;;;;;;;;;;6209766;28;20329;-69
2023/09/16 17:04:36;;;;;;;2.13;1.90;;;;;;;;;;6206912;28;20313;-70
2023/09/16 17:07:42;;;;;;;2.40;2.30;;;;;;;;;;6210276;28;20506;-70
2023/09/16 17:10:46;;;;;;;2.78;2.00;;;;;;;;;;6210620;28;20305;-68
2023/09/16 17:13:50;;;;;;;2.10;2.00;;;;;;;;;;6234860;28;20245;-69
2023/09/16 17:16:54;;;;;;;4.55;1.73;;;;;;;;;;6234125;28;20300;-69
2023/09/16 17:19:59;;;;;;;2.22;2.13;;;;;;;;;;6233346;28;20304;-69
2023/09/16 17:23:05;;;;;;;1.83;1.80;;;;;;;;;;6234137;28;20274;-71
2023/09/16 17:26:10;;;;;;;3.00;2.13;;;;;;;;;;6233135;28;20339;-69
2023/09/16 17:29:14;;;;;;;2.67;2.05;;;;;;;;;;6233622;28;20291;-71
2023/09/16 17:32:18;;;;;;;1.95;1.83;;;;;;;;;;6233534;28;20331;-70
2023/09/16 17:35:22;;;;;;;1.83;1.80;;;;;;;;;;6233479;28;20296;-71
2023/09/16 17:38:27;;;;;;;9.05;2.38;;;;;;;;;;6233847;28;20292;-69
2023/09/16 17:41:30;;;;;;;6.10;2.63;;;;;;;;;;6233154;28;20303;-68
2023/09/16 17:44:34;;;;;;;4.40;2.67;;;;;;;;;;6226117;28;20309;-70
2023/09/16 17:47:38;;;;;;;2.83;2.33;;;;;;;;;;6184401;28;20293;-68
2023/09/16 17:50:42;;;;;;;3.90;2.30;;;;;;;;;;6184694;28;20354;-68
2023/09/16 17:53:47;;;;;;;2.88;2.30;;;;;;;;;;6184961;28;20297;-68
2023/09/16 17:56:51;;;;;;;2.53;2.42;;;;;;;;;;6184477;28;20382;-69
2023/09/16 17:59:55;;;;;;;2.85;2.55;;;;;;;;;;6183554;28;20293;-69
2023/09/16 18:02:59;;;;;;;3.00;2.70;;;;;;;;;;6183236;28;20317;-72
2023/09/16 18:06:03;;;;;;;5.22;2.75;;;;;;;;;;6184403;28;20355;-69
2023/09/16 18:09:10;;;;;;;3.25;2.90;;;;;;;;;;6184308;28;20329;-67
2023/09/16 18:12:15;;;;;;;2.17;2.03;;;;;;;;;;6211676;28;20308;-69
2023/09/16 18:15:18;;;;;;;2.17;2.08;;;;;;;;;;6232738;28;20299;-68
2023/09/16 18:18:22;;;;;;;2.85;2.35;;;;;;;;;;6233288;28;20308;-69
2023/09/16 18:21:26;;;;;;;2.60;2.40;;;;;;;;;;6232747;28;20324;-70
2023/09/16 18:24:32;;;;;;;3.95;2.22;;;;;;;;;;6232538;28;20296;-69
2023/09/16 18:27:36;;;;;;;3.00;2.78;;;;;;;;;;6233240;28;20296;-70